Swanwick, Illinois
Current Conditions -  °F | °C
As of 11:15 PM on Sunday 19 Oct 2014 (Local Time) from KSAR Reporting Station
Overcast Overcast  
Wind Chill: 53°   Ceiling: 11000
Heat Index: 53°   Visibility: 10mi
Dew Point: 46°   Wind: 6mph
Humidity: 78%   Direction: 200°SSW
Pressure: 30.06"   Gusts: NA
Location:  38.1705°N, 89.5556°W
Report Text: KSAR 200415Z AUTO 20005KT 10SM OVC110 12/08 A3006 RMK AO2 T01150077
Loading
Personal Weather Stations






























Interactive Weather Map
Tropical Storm Tracking
New forecast layout! Learn more

10-Day Weather Forecast

Advertisements
Track Severe Weather on mobile